Time;durP1;ratioP1;P1;durP2;ratioP2;P2;SDS_P1;SDS_P2;PMS_P1;PMS_P2;Temp;Humidity;BMP_temperature;BMP_pressure;BME280_temperature;BME280_humidity;BME280_pressure;Samples;Min_cycle;Max_cycle;Signal;HPM_P1;HPM_P2
2020/12/25 00:00:48;;;;;;;3.40;2.40;;;;;;;-144.99;100.00;52558.16;5111463;28;20625;-73
2020/12/25 00:03:16;;;;;;;5.10;1.60;;;;;;;-144.99;100.00;52570.38;5110793;28;20756;-73
2020/12/25 00:05:45;;;;;;;4.03;2.40;;;;;;;-144.99;100.00;52566.31;5127465;27;21262;-72
2020/12/25 00:08:13;;;;;;;4.33;1.93;;;;;;;-144.99;100.00;52568.34;5119792;27;20655;-72
2020/12/25 00:10:40;;;;;;;8.20;3.27;;;;;;;-144.99;100.00;52533.69;5111451;28;20644;-73
2020/12/25 00:13:06;;;;;;;7.90;1.93;;;;;;;-144.99;100.00;52550.00;5111808;27;20653;-73
2020/12/25 00:15:32;;;;;;;6.43;1.90;;;;;;;-144.99;100.00;52566.31;5111417;28;20649;-73
2020/12/25 00:17:58;;;;;;;6.27;2.97;;;;;;;-144.99;100.00;52550.00;5110526;28;21226;-72
2020/12/25 00:20:25;;;;;;;4.27;1.80;;;;;;;-144.99;100.00;52572.44;5110615;28;20726;-74
2020/12/25 00:22:52;;;;;;;4.40;2.53;;;;;;;-144.99;100.00;52525.56;5110955;28;20653;-73
2020/12/25 00:25:18;;;;;;;8.87;2.23;;;;;;;-144.99;100.00;52523.50;5129984;27;20685;-74
2020/12/25 00:27:44;;;;;;;5.57;1.70;;;;;;;-144.99;100.00;52550.00;5130703;27;20651;-73
2020/12/25 00:30:10;;;;;;;6.77;2.50;;;;;;;-144.99;100.00;52521.47;5131142;27;20659;-73
2020/12/25 00:32:36;;;;;;;4.77;1.80;;;;;;;-144.99;100.00;52566.31;5131382;27;20694;-73
2020/12/25 00:35:02;;;;;;;4.53;3.20;;;;;;;-144.99;100.00;52570.38;5131384;27;20676;-72
2020/12/25 00:37:28;;;;;;;3.83;2.00;;;;;;;-144.99;100.00;52564.28;5130638;27;20652;-72
2020/12/25 00:39:57;;;;;;;4.77;1.77;;;;;;;-144.99;100.00;52582.63;5114427;27;20945;-72
2020/12/25 00:42:23;;;;;;;6.27;1.97;;;;;;;-144.99;100.00;52550.00;5117634;27;21122;-72
2020/12/25 00:44:49;;;;;;;4.07;1.60;;;;;;;-144.99;100.00;52562.25;5117034;27;20631;-72
2020/12/25 00:47:15;;;;;;;4.83;1.70;;;;;;;-144.99;100.00;52521.47;5130552;27;20728;-72
2020/12/25 00:49:41;;;;;;;4.17;2.13;;;;;;;-144.99;100.00;52545.94;5130721;27;20720;-74
2020/12/25 00:52:07;;;;;;;6.07;1.10;;;;;;;-144.99;100.00;52521.47;5130872;27;20679;-72
2020/12/25 00:54:33;;;;;;;7.77;2.03;;;;;;;-144.99;100.00;52552.03;5124149;27;20624;-72
2020/12/25 00:57:00;;;;;;;7.33;2.30;;;;;;;-144.99;100.00;52525.56;5125110;27;20682;-72
2020/12/25 00:59:26;;;;;;;8.77;2.20;;;;;;;-144.99;100.00;52578.53;5130772;27;20724;-72
2020/12/25 01:01:53;;;;;;;5.63;1.83;;;;;;;-144.99;100.00;52554.09;5131031;27;21103;-73
2020/12/25 01:04:20;;;;;;;2.30;1.40;;;;;;;-144.99;100.00;52570.38;5130327;27;20643;-72
2020/12/25 01:06:46;;;;;;;2.70;1.60;;;;;;;-144.99;100.00;52603.00;5126935;27;20719;-73
2020/12/25 01:09:12;;;;;;;2.77;1.77;;;;;;;-144.99;100.00;52550.00;5110081;28;20660;-73
2020/12/25 01:11:39;;;;;;;5.17;2.00;;;;;;;-144.99;100.00;52554.09;5111567;28;21356;-72
2020/12/25 01:14:06;;;;;;;7.63;2.77;;;;;;;-144.99;100.00;52590.78;5124750;27;20670;-73
2020/12/25 01:16:32;;;;;;;9.27;2.07;;;;;;;-144.99;100.00;52582.63;5112624;28;21040;-73
2020/12/25 01:18:58;;;;;;;4.83;3.10;;;;;;;-144.99;100.00;52550.00;5112431;28;20653;-73
2020/12/25 01:21:24;;;;;;;6.50;2.20;;;;;;;-144.99;100.00;52615.25;5113288;28;20724;-73
2020/12/25 01:23:50;;;;;;;4.50;1.90;;;;;;;-144.99;100.00;52556.13;5115219;28;21185;-73
2020/12/25 01:26:16;;;;;;;5.03;1.50;;;;;;;-144.99;100.00;52554.09;5114240;28;20621;-73
2020/12/25 01:28:42;;;;;;;3.53;1.50;;;;;;;-144.99;100.00;52619.31;5113669;28;20698;-73
2020/12/25 01:31:09;;;;;;;5.40;1.87;;;;;;;-144.99;100.00;52552.03;5115253;28;20731;-73
2020/12/25 01:33:36;;;;;;;4.63;1.17;;;;;;;-144.99;100.00;52543.91;5111756;28;20659;-72
2020/12/25 01:36:04;;;;;;;6.23;1.50;;;;;;;-144.99;100.00;52586.69;5110143;28;21002;-74
2020/12/25 01:38:31;;;;;;;5.67;2.23;;;;;;;-144.99;100.00;52550.00;5113933;28;20680;-73
2020/12/25 01:40:57;;;;;;;6.37;2.47;;;;;;;-144.99;100.00;52598.94;5119757;28;20629;-72
2020/12/25 01:43:23;;;;;;;4.60;1.60;;;;;;;-144.99;100.00;52550.00;5109636;28;21033;-73
2020/12/25 01:45:49;;;;;;;2.67;1.40;;;;;;;-144.99;100.00;52566.31;5109694;28;21229;-72
2020/12/25 01:48:17;;;;;;;7.90;2.47;;;;;;;-144.99;100.00;52629.50;5109789;28;21237;-73
2020/12/25 01:50:43;;;;;;;5.93;1.97;;;;;;;-144.99;100.00;52562.25;5109764;28;20664;-72
2020/12/25 01:53:10;;;;;;;6.37;1.70;;;;;;;-144.99;100.00;52554.09;5110772;28;20679;-72
2020/12/25 01:55:38;;;;;;;6.23;2.23;;;;;;;-144.99;100.00;52547.97;5110732;28;20740;-72
2020/12/25 01:58:05;;;;;;;7.83;2.00;;;;;;;-144.99;100.00;52562.25;5112886;28;20725;-73
2020/12/25 02:00:33;;;;;;;5.83;1.60;;;;;;;-144.99;100.00;52603.00;5114144;28;20674;-73
2020/12/25 02:02:59;;;;;;;5.43;2.13;;;;;;;-144.99;100.00;52582.63;5112887;28;20688;-72
2020/12/25 02:05:26;;;;;;;4.40;2.00;;;;;;;-144.99;100.00;52596.88;5127431;27;20624;-72
2020/12/25 02:07:55;;;;;;;4.10;2.23;;;;;;;-144.99;100.00;52558.16;5124547;27;21320;-72
2020/12/25 02:10:22;;;;;;;2.97;1.63;;;;;;;-144.99;100.00;52611.16;5113890;28;20639;-72
2020/12/25 02:12:48;;;;;;;3.47;1.90;;;;;;;-144.99;100.00;52558.16;5113445;27;20752;-73
2020/12/25 02:15:14;;;;;;;6.13;1.80;;;;;;;-144.99;100.00;52574.47;5113558;28;20727;-72
2020/12/25 02:17:44;;;;;;;7.43;2.00;;;;;;;-144.99;100.00;52594.84;5112890;28;20620;-73
2020/12/25 02:20:10;;;;;;;7.90;1.90;;;;;;;-144.99;100.00;52570.38;5118118;27;20727;-72
2020/12/25 02:22:37;;;;;;;4.53;2.20;;;;;;;-144.99;100.00;52562.25;5122716;27;20772;-73
2020/12/25 02:25:04;;;;;;;6.83;1.83;;;;;;;-144.99;100.00;52566.31;5113696;28;20709;-73
2020/12/25 02:27:30;;;;;;;9.50;4.60;;;;;;;-144.99;100.00;52566.31;5112829;28;21232;-73
2020/12/25 02:29:56;;;;;;;5.50;3.60;;;;;;;-144.99;100.00;52586.69;5113521;28;20628;-73
2020/12/25 02:32:22;;;;;;;7.70;2.57;;;;;;;-144.99;100.00;52611.16;5113802;28;20786;-72
2020/12/25 02:34:48;;;;;;;5.27;2.47;;;;;;;-144.99;100.00;52621.34;5112986;28;21026;-72
2020/12/25 02:37:14;;;;;;;5.97;1.20;;;;;;;-144.99;100.00;52590.78;5116104;27;21237;-72
2020/12/25 02:39:41;;;;;;;4.07;1.33;;;;;;;-144.99;100.00;52590.78;5116083;27;21027;-72
2020/12/25 02:42:10;;;;;;;3.23;1.47;;;;;;;-144.99;100.00;52558.16;5120668;27;21094;-72
2020/12/25 02:44:37;;;;;;;6.20;1.67;;;;;;;-144.99;100.00;52578.53;5112976;28;20617;-73
2020/12/25 02:47:04;;;;;;;5.73;1.70;;;;;;;-144.99;100.00;52582.63;5112958;28;20702;-72
2020/12/25 02:49:30;;;;;;;3.93;1.50;;;;;;;-144.99;100.00;52621.34;5112932;28;20628;-72
2020/12/25 02:51:56;;;;;;;5.60;1.93;;;;;;;-144.99;100.00;52574.47;5113597;28;21024;-73
2020/12/25 02:54:22;;;;;;;4.20;1.77;;;;;;;-144.99;100.00;52570.38;5125221;27;20669;-73
2020/12/25 02:56:49;;;;;;;8.60;2.30;;;;;;;-144.99;100.00;52574.47;5121273;27;20707;-73
2020/12/25 02:59:16;;;;;;;6.37;1.53;;;;;;;-144.99;100.00;52578.53;5113076;28;21197;-72
2020/12/25 03:01:42;;;;;;;7.23;1.97;;;;;;;-144.99;100.00;52545.94;5113877;28;20715;-73
2020/12/25 03:04:08;;;;;;;4.60;2.50;;;;;;;-144.99;100.00;52566.31;5118095;27;21255;-74
2020/12/25 03:06:34;;;;;;;5.37;1.90;;;;;;;-144.99;100.00;52578.53;5130712;27;20992;-72
2020/12/25 03:09:00;;;;;;;4.40;1.70;;;;;;;-144.99;100.00;52566.31;5113822;27;21304;-72
2020/12/25 03:11:27;;;;;;;3.03;1.63;;;;;;;-144.99;100.00;52603.00;5112889;28;21064;-73
2020/12/25 03:13:54;;;;;;;4.07;1.83;;;;;;;-144.99;100.00;52603.00;5126566;27;21249;-73
2020/12/25 03:16:20;;;;;;;6.80;1.90;;;;;;;-144.99;100.00;52564.28;5112732;28;20993;-73
2020/12/25 03:18:46;;;;;;;6.80;2.43;;;;;;;-144.99;100.00;52598.94;5111915;28;21047;-72
2020/12/25 03:21:12;;;;;;;8.20;1.83;;;;;;;-144.99;100.00;52623.38;5112135;28;21009;-72
2020/12/25 03:23:38;;;;;;;3.53;1.10;;;;;;;-144.99;100.00;52558.16;5113177;28;21390;-72
2020/12/25 03:26:05;;;;;;;5.80;2.10;;;;;;;-144.99;100.00;52578.53;5112402;28;21029;-73
2020/12/25 03:28:31;;;;;;;5.77;1.63;;;;;;;-144.99;100.00;52550.00;5119980;27;20751;-71
2020/12/25 03:30:58;;;;;;;6.80;1.87;;;;;;;-144.99;100.00;52582.63;5133334;27;20723;-71
2020/12/25 03:33:24;;;;;;;5.67;1.87;;;;;;;-144.99;100.00;52580.59;5132805;27;21277;-73
2020/12/25 03:35:50;;;;;;;5.50;2.27;;;;;;;-144.99;100.00;52574.47;5133295;27;20633;-71
2020/12/25 03:38:16;;;;;;;5.43;2.50;;;;;;;-144.99;100.00;52594.84;5125056;27;20656;-73
2020/12/25 03:40:43;;;;;;;6.67;2.30;;;;;;;-144.99;100.00;52570.38;5122351;27;20788;-71
2020/12/25 03:43:09;;;;;;;5.57;1.97;;;;;;;-144.99;100.00;52590.78;5112068;28;21088;-71
2020/12/25 03:45:35;;;;;;;2.57;1.50;;;;;;;-144.99;100.00;52578.53;5112179;28;21027;-71
2020/12/25 03:48:02;;;;;;;5.87;2.07;;;;;;;-144.99;100.00;52598.94;5111433;28;20718;-73
2020/12/25 03:50:29;;;;;;;7.47;1.63;;;;;;;-144.99;100.00;52550.00;5116047;28;20652;-73
2020/12/25 03:52:55;;;;;;;5.70;1.90;;;;;;;-144.99;100.00;52586.69;5112067;28;20656;-73
2020/12/25 03:55:21;;;;;;;7.83;1.77;;;;;;;-144.99;100.00;52566.31;5112797;28;20661;-73
2020/12/25 03:57:47;;;;;;;5.03;2.53;;;;;;;-144.99;100.00;52590.78;5112297;28;21066;-73
2020/12/25 04:00:13;;;;;;;4.93;1.93;;;;;;;-144.99;100.00;52582.63;5112560;28;20662;-72
2020/12/25 04:02:39;;;;;;;6.80;2.20;;;;;;;-144.99;100.00;52605.03;5117544;28;20675;-73
2020/12/25 04:05:06;;;;;;;7.93;2.00;;;;;;;-144.99;100.00;52560.19;5130931;27;20723;-73
2020/12/25 04:07:33;;;;;;;11.20;3.60;;;;;;;-144.99;100.00;52607.09;5124190;27;20688;-72
2020/12/25 04:09:59;;;;;;;2.90;1.27;;;;;;;-144.99;100.00;52590.78;5112218;28;21035;-73
2020/12/25 04:12:25;;;;;;;12.77;2.20;;;;;;;-144.99;100.00;52611.16;5112482;28;20688;-73
2020/12/25 04:14:51;;;;;;;2.77;1.67;;;;;;;-144.99;100.00;52594.84;5112585;28;20708;-73
2020/12/25 04:17:17;;;;;;;7.50;1.53;;;;;;;-144.99;100.00;52578.53;5112798;28;20656;-73
2020/12/25 04:19:43;;;;;;;6.53;2.30;;;;;;;-144.99;100.00;52609.13;5111871;28;20724;-73
2020/12/25 04:22:10;;;;;;;4.40;1.43;;;;;;;-144.99;100.00;52578.53;5111983;28;20756;-73
2020/12/25 04:24:36;;;;;;;6.53;1.43;;;;;;;-144.99;100.00;52574.47;5112702;28;21373;-72
2020/12/25 04:27:02;;;;;;;11.50;2.00;;;;;;;-144.99;100.00;52586.69;5112129;28;20621;-73
2020/12/25 04:29:29;;;;;;;4.30;2.37;;;;;;;-144.99;100.00;52566.31;5111593;28;21316;-73
2020/12/25 04:31:55;;;;;;;4.90;1.37;;;;;;;-144.99;100.00;52574.47;5111898;28;21133;-73
2020/12/25 04:34:21;;;;;;;4.10;1.67;;;;;;;-144.99;100.00;52611.16;5111914;28;20653;-73
2020/12/25 04:36:47;;;;;;;5.73;2.07;;;;;;;-144.99;100.00;52584.66;5111775;28;20660;-72
2020/12/25 04:39:14;;;;;;;5.50;3.93;;;;;;;-144.99;100.00;52611.16;5115517;27;20625;-73
2020/12/25 04:41:40;;;;;;;3.13;1.40;;;;;;;-144.99;100.00;52631.53;5120965;27;21247;-72
2020/12/25 04:44:07;;;;;;;6.97;1.30;;;;;;;-144.99;100.00;52580.59;5111369;28;20717;-73
2020/12/25 04:46:33;;;;;;;5.53;1.33;;;;;;;-144.99;100.00;52603.00;5111801;28;20617;-73
2020/12/25 04:48:59;;;;;;;4.57;1.43;;;;;;;-144.99;100.00;52607.09;5110636;28;20760;-73
2020/12/25 04:51:26;;;;;;;6.43;1.93;;;;;;;-144.99;100.00;52603.00;5110832;28;20750;-73
2020/12/25 04:53:53;;;;;;;10.90;2.03;;;;;;;-144.99;100.00;52580.59;5112029;28;20683;-73
2020/12/25 04:56:22;;;;;;;5.27;2.07;;;;;;;-144.99;100.00;52594.84;5112261;28;20858;-73
2020/12/25 04:58:49;;;;;;;3.67;1.20;;;;;;;-144.99;100.00;52594.84;5112538;28;20753;-72
2020/12/25 05:01:16;;;;;;;3.77;1.30;;;;;;;-144.99;100.00;52596.88;5114381;28;20674;-73
2020/12/25 05:03:44;;;;;;;6.97;1.90;;;;;;;-144.99;100.00;52592.81;5126806;27;20610;-74
2020/12/25 05:06:12;;;;;;;3.97;1.40;;;;;;;-144.99;100.00;52562.25;5143415;27;20631;-72
2020/12/25 05:08:44;;;;;;;2.97;1.33;;;;;;;-144.99;100.00;52568.34;5128598;28;20653;-72
2020/12/25 05:11:10;;;;;;;4.47;1.97;;;;;;;-144.99;100.00;52574.47;5113612;28;20716;-73
2020/12/25 05:13:44;;;;;;;5.77;1.80;;;;;;;-144.99;100.00;52570.38;5111199;28;20697;-73
2020/12/25 05:16:11;;;;;;;5.00;1.53;;;;;;;-144.99;100.00;52619.31;5111157;28;20616;-72
2020/12/25 05:18:41;;;;;;;3.60;1.30;;;;;;;-144.99;100.00;52558.16;5110590;28;21082;-73
2020/12/25 05:21:09;;;;;;;9.10;1.67;;;;;;;-144.99;100.00;52594.84;5111264;28;20617;-72
2020/12/25 05:23:38;;;;;;;5.97;2.73;;;;;;;-144.99;100.00;52562.25;5110944;28;20740;-73
2020/12/25 05:26:05;;;;;;;5.40;1.20;;;;;;;-144.99;100.00;52603.00;5111063;28;20682;-73
2020/12/25 05:28:36;;;;;;;4.20;1.63;;;;;;;-144.99;100.00;52598.94;5110337;28;20751;-73
2020/12/25 05:31:03;;;;;;;6.90;3.30;;;;;;;-144.99;100.00;52594.84;5110089;28;20720;-73
2020/12/25 05:33:31;;;;;;;2.50;1.03;;;;;;;-144.99;100.00;52598.94;5114134;28;20760;-73
2020/12/25 05:35:57;;;;;;;8.70;1.83;;;;;;;-144.99;100.00;52576.50;5114627;28;20765;-73
2020/12/25 05:38:26;;;;;;;4.33;1.43;;;;;;;-144.99;100.00;52596.88;5119628;27;20625;-73
2020/12/25 05:40:53;;;;;;;3.03;1.73;;;;;;;-144.99;100.00;52556.13;5124494;27;20651;-73
2020/12/25 05:43:19;;;;;;;2.90;1.47;;;;;;;-144.99;100.00;52598.94;5114567;28;20724;-73
2020/12/25 05:45:46;;;;;;;5.20;1.47;;;;;;;-144.99;100.00;52586.69;5114720;28;20720;-73
2020/12/25 05:48:14;;;;;;;4.30;1.40;;;;;;;-144.99;100.00;52609.13;5114212;28;20657;-74
2020/12/25 05:50:41;;;;;;;4.23;1.30;;;;;;;-144.99;100.00;52611.16;5114071;28;20636;-72
2020/12/25 05:53:08;;;;;;;4.50;1.43;;;;;;;-144.99;100.00;52582.63;5114902;28;21292;-73
2020/12/25 05:55:34;;;;;;;5.03;3.67;;;;;;;-144.99;100.00;52570.38;5115215;28;21028;-73
2020/12/25 05:58:03;;;;;;;5.80;1.57;;;;;;;-144.99;100.00;52586.69;5115048;28;20629;-73
2020/12/25 06:00:30;;;;;;;3.93;1.50;;;;;;;-144.99;100.00;52580.59;5119457;28;20756;-73
2020/12/25 06:02:56;;;;;;;3.07;1.40;;;;;;;-144.99;100.00;52594.84;5119062;28;21022;-73
2020/12/25 06:05:24;;;;;;;10.67;1.80;;;;;;;-144.99;100.00;52611.16;5136345;27;21071;-73
2020/12/25 06:07:53;;;;;;;5.93;2.33;;;;;;;-144.99;100.00;52578.53;5130908;27;20652;-73
2020/12/25 06:10:21;;;;;;;3.70;1.10;;;;;;;-144.99;100.00;52672.31;5133962;27;20652;-73
2020/12/25 06:12:48;;;;;;;7.00;1.97;;;;;;;-144.99;100.00;52631.53;5124118;27;20684;-73
2020/12/25 06:15:21;;;;;;;1.60;0.80;;;;;;;-144.99;100.00;52627.47;5115082;28;20664;-73
2020/12/25 06:17:57;;;;;;;4.70;1.17;;;;;;;-144.99;100.00;52574.47;5113866;28;20720;-73
2020/12/25 06:20:25;;;;;;;4.83;1.40;;;;;;;-144.99;100.00;52574.47;5114703;28;20711;-73
2020/12/25 06:22:52;;;;;;;4.50;1.90;;;;;;;-144.99;100.00;52611.16;5127899;27;20667;-74
2020/12/25 06:25:21;;;;;;;7.33;3.07;;;;;;;-144.99;100.00;52564.28;5114610;28;20640;-72
2020/12/25 06:27:50;;;;;;;6.40;1.83;;;;;;;-144.99;100.00;52594.84;5114169;28;20641;-72
2020/12/25 06:30:24;;;;;;;10.63;3.40;;;;;;;-144.99;100.00;52603.00;5114750;28;20628;-72
2020/12/25 06:32:53;;;;;;;3.63;2.40;;;;;;;-144.99;100.00;52611.16;5114114;28;20690;-72
2020/12/25 06:35:31;;;;;;;3.33;1.20;;;;;;;-144.99;100.00;52570.38;5114756;28;20640;-72
2020/12/25 06:37:57;;;;;;;3.60;2.13;;;;;;;-144.99;100.00;52615.25;5118067;27;21079;-73
2020/12/25 06:40:24;;;;;;;2.73;1.13;;;;;;;-144.99;100.00;52605.03;5121694;27;20612;-72
2020/12/25 06:42:54;;;;;;;5.20;1.63;;;;;;;-144.99;100.00;52590.78;5114764;27;20736;-73
2020/12/25 06:45:27;;;;;;;3.07;1.50;;;;;;;-144.99;100.00;52590.78;5113313;28;20629;-73
2020/12/25 06:48:11;;;;;;;6.10;1.73;;;;;;;-144.99;100.00;52586.69;5112503;28;20653;-72
2020/12/25 06:50:42;;;;;;;5.20;1.70;;;;;;;-144.99;100.00;52625.44;5113967;28;20636;-73
2020/12/25 06:53:08;;;;;;;5.80;1.60;;;;;;;-144.99;100.00;52603.00;5113344;28;20760;-73
2020/12/25 06:55:41;;;;;;;3.10;0.90;;;;;;;-144.99;100.00;52643.78;5113672;28;20625;-72
2020/12/25 06:58:07;;;;;;;2.73;1.13;;;;;;;-144.99;100.00;52545.94;5112922;28;20959;-73
2020/12/25 07:00:33;;;;;;;1.60;0.90;;;;;;;-144.99;100.00;52582.63;5113739;28;20657;-73
2020/12/25 07:03:10;;;;;;;4.43;2.07;;;;;;;-144.99;100.00;52594.84;5112647;28;21259;-72
2020/12/25 07:05:46;;;;;;;5.37;1.50;;;;;;;-144.99;100.00;52603.00;5128752;27;20613;-72
2020/12/25 07:08:26;;;;;;;2.93;1.20;;;;;;;-144.99;100.00;52603.00;5121524;27;20676;-73
2020/12/25 07:10:59;;;;;;;2.63;1.30;;;;;;;-144.99;100.00;52603.00;5123849;27;20695;-74
2020/12/25 07:13:25;;;;;;;4.67;1.40;;;;;;;-144.99;100.00;52578.53;5132669;27;20660;-74
2020/12/25 07:15:52;;;;;;;9.97;1.97;;;;;;;-144.99;100.00;52631.53;5127027;28;20649;-73
2020/12/25 07:18:18;;;;;;;5.07;1.80;;;;;;;-144.99;100.00;52598.94;5128370;28;20683;-74
2020/12/25 07:20:44;;;;;;;13.43;3.13;;;;;;;-144.99;100.00;52584.66;5128398;28;20670;-73
2020/12/25 07:23:11;;;;;;;5.40;3.13;;;;;;;-144.99;100.00;52623.38;5128714;28;20996;-73
2020/12/25 07:25:40;;;;;;;9.37;2.80;;;;;;;-144.99;100.00;52586.69;5117192;28;20625;-73
2020/12/25 07:28:07;;;;;;;5.33;2.53;;;;;;;-144.99;100.00;52603.00;5113516;28;21201;-73
2020/12/25 07:30:33;;;;;;;10.20;2.60;;;;;;;-144.99;100.00;52574.47;5114120;28;21269;-73
2020/12/25 07:32:59;;;;;;;9.40;2.90;;;;;;;-144.99;100.00;52615.25;5122078;28;20728;-74
2020/12/25 07:35:25;;;;;;;4.90;2.03;;;;;;;-144.99;100.00;52570.38;5127758;28;20628;-73
2020/12/25 07:37:53;;;;;;;9.37;2.13;;;;;;;-144.99;100.00;52558.16;5130317;27;20682;-73
2020/12/25 07:40:20;;;;;;;6.60;1.37;;;;;;;-144.99;100.00;52611.16;5135343;27;20939;-73
2020/12/25 07:42:46;;;;;;;2.13;1.40;;;;;;;-144.99;100.00;52603.00;5128831;27;20629;-74
2020/12/25 07:45:12;;;;;;;3.53;1.10;;;;;;;-144.99;100.00;52603.00;5135640;27;20660;-71
2020/12/25 07:47:39;;;;;;;2.60;1.73;;;;;;;-144.99;100.00;52582.63;5131235;27;20633;-71
2020/12/25 07:50:05;;;;;;;11.73;2.33;;;;;;;-144.99;100.00;52594.84;5120346;27;21014;-72
2020/12/25 07:52:32;;;;;;;3.33;1.80;;;;;;;-144.99;100.00;52570.38;5112505;28;21245;-71
2020/12/25 07:54:58;;;;;;;10.33;3.47;;;;;;;-144.99;100.00;52560.19;5112277;28;20720;-72
2020/12/25 07:57:25;;;;;;;2.87;1.70;;;;;;;-144.99;100.00;52558.16;5112803;28;20724;-72
2020/12/25 07:59:51;;;;;;;5.13;1.73;;;;;;;-144.99;100.00;52580.59;5111688;28;20689;-73
2020/12/25 08:02:17;;;;;;;10.60;1.70;;;;;;;-144.99;100.00;52574.47;5118168;27;20671;-72
2020/12/25 08:04:45;;;;;;;7.00;1.77;;;;;;;-144.99;100.00;52545.94;5129089;27;20608;-73
2020/12/25 08:07:11;;;;;;;5.97;2.10;;;;;;;-144.99;100.00;52600.97;5125069;27;20724;-73
2020/12/25 08:09:39;;;;;;;4.07;1.93;;;;;;;-144.99;100.00;52611.16;5111193;28;20780;-72
2020/12/25 08:12:11;;;;;;;10.93;2.07;;;;;;;-144.99;100.00;52598.94;5110857;28;21229;-72
2020/12/25 08:14:40;;;;;;;4.73;1.63;;;;;;;-144.99;100.00;52550.00;5110928;28;20658;-73
2020/12/25 08:17:08;;;;;;;3.90;1.17;;;;;;;-144.99;100.00;52613.19;5110331;28;20716;-73
2020/12/25 08:19:35;;;;;;;4.03;1.40;;;;;;;-144.99;100.00;52554.09;5109572;28;20987;-72
2020/12/25 08:22:04;;;;;;;5.43;1.67;;;;;;;-144.99;100.00;52545.94;5111008;28;20669;-73
2020/12/25 08:24:31;;;;;;;5.90;2.00;;;;;;;-144.99;100.00;52566.31;5110530;28;21269;-73
2020/12/25 08:27:01;;;;;;;9.60;2.37;;;;;;;-144.99;100.00;52525.56;5110370;28;21031;-72
2020/12/25 08:29:29;;;;;;;11.87;2.13;;;;;;;-144.99;100.00;52562.25;5112759;28;20653;-73
2020/12/25 08:32:06;;;;;;;4.87;1.53;;;;;;;-144.99;100.00;52578.53;5111547;28;20737;-72
2020/12/25 08:34:32;;;;;;;3.43;1.53;;;;;;;-144.99;100.00;52537.78;5123522;27;20627;-73
2020/12/25 08:37:01;;;;;;;4.57;1.43;;;;;;;-144.99;100.00;52550.00;5110738;27;20636;-72
2020/12/25 08:39:28;;;;;;;5.60;2.00;;;;;;;-144.99;100.00;52545.94;5112237;27;21047;-73
2020/12/25 08:41:55;;;;;;;4.13;3.10;;;;;;;-144.99;100.00;52541.84;5119417;27;20748;-72
2020/12/25 08:44:21;;;;;;;3.53;1.97;;;;;;;-144.99;100.00;52550.00;5109855;28;21285;-72
2020/12/25 08:46:47;;;;;;;8.57;2.70;;;;;;;-144.99;100.00;52550.00;5110307;28;20701;-72
2020/12/25 08:49:25;;;;;;;5.33;2.17;;;;;;;-144.99;100.00;52566.31;5109344;28;21225;-72
2020/12/25 08:51:52;;;;;;;5.17;1.63;;;;;;;-144.99;100.00;52554.09;5110552;28;20651;-72
2020/12/25 08:54:24;;;;;;;8.00;1.13;;;;;;;-144.99;99.72;52562.25;5110082;28;21318;-72
2020/12/25 08:56:51;;;;;;;3.87;1.93;;;;;;;-144.99;99.02;52547.97;5109731;28;21204;-71
2020/12/25 08:59:20;;;;;;;5.03;1.43;;;;;;;-144.99;97.79;52558.16;5109497;28;20731;-73
2020/12/25 09:01:47;;;;;;;5.00;2.10;;;;;;;-144.99;95.26;52541.84;5109206;28;21006;-71
2020/12/25 09:04:13;;;;;;;7.20;1.63;;;;;;;-144.99;92.12;52501.09;5115365;27;21169;-73
2020/12/25 09:06:41;;;;;;;4.20;2.50;;;;;;;-144.99;90.89;52517.41;5126926;27;20619;-73
2020/12/25 09:09:07;;;;;;;3.07;1.47;;;;;;;-144.99;90.11;52482.75;5117145;27;21240;-71
2020/12/25 09:11:33;;;;;;;4.23;1.10;;;;;;;-144.99;88.32;52513.31;5117145;27;21063;-71
2020/12/25 09:13:59;;;;;;;3.97;2.30;;;;;;;-144.99;86.74;52486.81;5109996;27;21170;-72
2020/12/25 09:16:25;;;;;;;4.10;1.93;;;;;;;-144.99;85.03;52533.69;5110437;28;20637;-72
2020/12/25 09:18:52;;;;;;;9.17;2.07;;;;;;;-144.99;83.38;52521.47;5110582;28;20621;-70
2020/12/25 09:21:18;;;;;;;2.30;1.37;;;;;;;-144.99;81.62;52515.34;5114235;28;20706;-72
2020/12/25 09:23:45;;;;;;;2.63;1.50;;;;;;;-144.99;80.97;52533.69;5110969;28;20609;-71
2020/12/25 09:26:13;;;;;;;2.00;0.73;;;;;;;-144.99;79.21;52521.47;5109650;28;21285;-71
2020/12/25 09:28:40;;;;;;;3.53;1.53;;;;;;;-144.99;77.62;52511.28;5110135;28;21196;-72
2020/12/25 09:31:08;;;;;;;8.50;1.90;;;;;;;-144.99;76.71;52517.41;5110415;28;20723;-71
2020/12/25 09:33:34;;;;;;;5.07;2.37;;;;;;;-144.99;75.96;52525.56;5109892;28;20777;-72
2020/12/25 09:36:01;;;;;;;7.13;2.23;;;;;;;-144.99;73.79;52519.44;5110380;28;20656;-73
2020/12/25 09:38:28;;;;;;;4.00;1.33;;;;;;;-144.99;72.84;52505.16;5113565;28;20725;-71
2020/12/25 09:40:55;;;;;;;2.27;1.20;;;;;;;-144.99;71.85;52488.84;5119380;28;20678;-71
2020/12/25 09:43:21;;;;;;;5.00;2.03;;;;;;;-144.99;71.34;52460.31;5110050;28;20310;-72
2020/12/25 09:45:48;;;;;;;6.77;1.90;;;;;;;-144.99;69.85;52470.50;5109732;28;20243;-70
2020/12/25 09:48:14;;;;;;;2.47;1.27;;;;;;;-144.99;68.09;52476.63;5109218;28;20261;-72
2020/12/25 09:50:42;;;;;;;5.20;2.23;;;;;;;-144.99;66.28;52476.63;5109553;28;20272;-72
2020/12/25 09:53:08;;;;;;;4.87;2.17;;;;;;;-144.99;64.97;52431.78;5109790;28;20415;-71
2020/12/25 09:55:36;;;;;;;4.37;2.77;;;;;;;-144.99;63.66;52460.31;5111721;28;20278;-71
2020/12/25 09:58:03;;;;;;;6.87;2.73;;;;;;;-144.99;61.45;52472.56;5115568;28;20210;-71
2020/12/25 10:00:29;;;;;;;4.57;2.20;;;;;;;-144.99;60.66;52474.59;5114320;28;20234;-73
2020/12/25 10:02:56;;;;;;;5.63;2.77;;;;;;;-144.99;58.77;52439.94;5127684;28;20316;-72
2020/12/25 10:05:22;;;;;;;5.53;1.67;;;;;;;-144.99;56.91;52435.88;5130992;28;20387;-73
2020/12/25 10:07:52;;;;;;;5.30;1.93;;;;;;;-144.99;55.01;52468.47;5119958;28;20728;-72
2020/12/25 10:10:19;;;;;;;2.23;1.20;;;;;;;-144.99;53.65;52386.94;5109525;28;20216;-72
2020/12/25 10:12:46;;;;;;;2.40;1.30;;;;;;;-144.99;51.67;52419.56;5109308;28;20298;-73
2020/12/25 10:15:13;;;;;;;3.30;1.87;;;;;;;-144.99;50.68;52419.56;5109360;28;20306;-73
2020/12/25 10:17:40;;;;;;;4.23;1.67;;;;;;;-144.99;48.78;52374.72;5108883;28;20657;-73
2020/12/25 10:20:06;;;;;;;4.43;1.60;;;;;;;-144.99;47.55;52370.63;5112327;28;20636;-73
2020/12/25 10:22:33;;;;;;;4.47;1.97;;;;;;;-144.99;46.27;52342.09;5113337;28;20250;-73
2020/12/25 10:24:59;;;;;;;6.43;2.60;;;;;;;-144.99;45.04;52362.50;5113092;28;20276;-71
2020/12/25 10:27:25;;;;;;;11.83;4.33;;;;;;;-144.99;43.71;52307.47;5112917;28;20227;-73
2020/12/25 10:29:52;;;;;;;10.13;3.83;;;;;;;-144.99;43.21;52325.81;5112523;28;20234;-74
2020/12/25 10:32:19;;;;;;;5.20;2.27;;;;;;;-144.99;41.93;52333.94;5113044;28;20243;-72
2020/12/25 10:34:45;;;;;;;4.67;2.20;;;;;;;-144.99;41.07;52309.50;5113214;28;20196;-72
2020/12/25 10:37:11;;;;;;;5.83;3.37;;;;;;;-144.99;40.16;52293.19;5115305;27;20227;-72
2020/12/25 10:39:37;;;;;;;7.70;2.30;;;;;;;-144.99;39.67;52321.72;5115694;27;20199;-71
2020/12/25 10:42:07;;;;;;;4.53;2.83;;;;;;;-144.99;39.15;52280.97;5133237;27;20234;-72
2020/12/25 10:44:34;;;;;;;3.93;2.20;;;;;;;-144.99;38.15;52260.56;5113388;27;20496;-72
2020/12/25 10:47:00;;;;;;;4.57;2.33;;;;;;;-144.99;37.46;52266.69;5112316;28;20309;-74
2020/12/25 10:49:27;;;;;;;2.70;1.40;;;;;;;-144.99;36.47;52280.97;5111774;28;20259;-72
2020/12/25 10:51:54;;;;;;;5.80;2.33;;;;;;;-144.99;35.91;52213.69;5112961;28;20300;-73
2020/12/25 10:54:20;;;;;;;3.93;1.80;;;;;;;-144.99;35.41;52232.03;5112533;28;20265;-72
2020/12/25 10:56:46;;;;;;;2.73;1.47;;;;;;;-144.99;34.89;52264.66;5112394;28;20208;-72
2020/12/25 10:59:12;;;;;;;5.23;1.47;;;;;;;-144.99;34.59;52236.13;5119000;27;20309;-72
2020/12/25 11:01:40;;;;;;;4.23;1.80;;;;;;;-144.99;34.34;52203.50;5132507;27;20226;-72
2020/12/25 11:04:06;;;;;;;3.93;1.67;;;;;;;-144.99;34.32;52191.28;5132564;27;20323;-73
2020/12/25 11:06:34;;;;;;;2.60;1.33;;;;;;;-144.99;33.85;52276.88;5129814;27;20225;-75
2020/12/25 11:09:01;;;;;;;3.63;1.37;;;;;;;-144.99;33.61;52223.88;5112708;27;20258;-73